Cambridge, Illinois
Current Conditions -  °F | °C
As of 8:01 AM on Saturday 25 Oct 2014 (Local Time) from KMLI Reporting Station
Haze Haze  
Wind Chill: 51°   Ceiling: 200
Heat Index: 51°   Visibility: 1mi
Dew Point: 50°   Wind: 5mph
Humidity: 96%   Direction: 270°W
Pressure: 29.99"   Gusts: NA
Location:  41.3°N, 90.19°W
Report Text: KMLI 251301Z 27004KT 1SM R09/5000VP6000FT BR VV002 11/10 A2999 RMK AO2 T01060100 $
Loading
Personal Weather Stations






























Interactive Weather Map
Tropical Storm Tracking
New forecast layout! Learn more

10-Day Weather Forecast

Advertisements
Track Severe Weather on mobile